Tiempo atmosférico en la estación meteorológica de Los Tojos, Bárcena Mayor, Cantabria (455 m.)



Fecha
DESCASC
Temp. máxima en grados centígrados (hora)
DESCASC
Temp. mínima en grados centígrados (hora)
DESCASC
Temp. media en grados centígrados
DESCASC
Racha de viento máxima en m/sg (hora)
DESCASC
Velocidad máxima media en intervalos de 10 minutos(hora)
DESCASC
Precipitaciones diarias en mm
DESCASC
Precipitaciones de 00:00 a 06:00 en mm
DESCASC
Precipitaciones de 06:00 a 12:00 en mm
DESCASC
Precipitaciones de 12:00 a 18:00 en mm
DESCASC
Precipitaciones de 18:00 a 24:00 en mm
DESCASC
19-05-2019 14.6 (15:50) 6 (00:00) 10.3 8.61 (14:10) 3.89 (16:20) 0 0 0 0 0
18-05-2019 11.3 (17:00) 3.3 (03:10) 7.3 8.89 (18:00) 4.44 (17:50) 4.4 0 4 0.2 0.2
17-05-2019 11.3 (15:30) 5.3 (23:59) 8.3 10.56 (07:20) 5 (06:40) 5 1 2.8 1.2 0
16-05-2019 16.9 (12:10) 6.8 (00:00) 11.8 9.44 (20:10) 3.89 (20:10) 10.8 0 0 2 8.8
15-05-2019 25.8 (16:20) 2.7 (00:00) 14.2 6.39 (14:30) 3.06 (14:30) 0 0 0 0 0
14-05-2019 25 (16:00) 1 (00:00) 13 7.22 (12:20) 3.89 (12:00) 0 0 0 0 0
13-05-2019 21.6 (15:20) 2.5 (00:00) 12.1 6.39 (13:10) 3.06 (18:40) 0 0 0 0 0
12-05-2019 21 (16:00) 1.2 (00:00) 11.1 5.56 (15:50) 3.06 (16:40) 0 0 0 0 0
11-05-2019 15.5 (18:20) 5.9 (00:00) 10.7 7.22 (15:20) 3.33 (10:20) 1.6 1.4 0.2 0 0
10-05-2019 19.6 (14:30) 9.5 (00:00) 14.6 7.78 (15:00) 4.44 (19:40) 1.8 0.8 0 0 1
09-05-2019 17.3 (13:10) 1.6 (00:00) 9.4 5.83 (19:10) 2.78 (13:30) 4.8 0 0 0.2 4.6
08-05-2019 18.1 (00:40) 7 (00:00) 12.6 8.61 (04:50) 4.44 (04:20) 1.2 0 1.2 0 0
07-05-2019 20.7 (13:30) 5.3 (00:00) 13 6.94 (22:30) 3.06 (23:10) 0 0 0 0 0
06-05-2019 21.6 (17:20) 1.4 (00:00) 11.5 6.39 (18:30) 3.06 (14:50) 0 0 0 0 0
05-05-2019 15.6 (16:20) 3.8 (00:00) 9.7 6.94 (17:00) 3.61 (15:00) 0.4 0.4 0 0 0
04-05-2019 15.2 (13:30) 1 (00:00) 8.1 10.56 (19:40) 4.72 (17:10) 1.8 0 0 0 1.8
03-05-2019 10.8 (16:00) 6 (00:00) 8.4 8.06 (17:20) 4.44 (16:30) 6.4 0 5.8 0.6 0
02-05-2019 13.5 (14:50) 1.4 (08:00) 7.4 7.22 (18:20) 3.61 (18:20) 0 0 0 0 0
01-05-2019 14.5 (11:40) 3.6 (00:00) 9 6.94 (14:40) 3.61 (14:40) 0 0 0 0 0
30-04-2019 20.3 (15:00) 3.5 (00:00) 11.9 6.11 (14:20) 3.33 (15:20) 0 0 0 0 0
29-04-2019 21.4 (16:20) 3.2 (00:00) 12.3 6.39 (14:40) 3.33 (14:40) 0 0 0 0 0
28-04-2019 19.8 (15:50) 5.6 (00:00) 12.7 6.67 (16:50) 3.06 (16:20) 0.2 0.2 0 0 0
27-04-2019 13.8 (11:40) 3.3 (00:00) 8.6 6.67 (12:10) 3.06 (12:10) 0.8 0 0 0.4 0.4
26-04-2019 14.2 (13:50) 4.9 (00:00) 9.5 8.89 (12:30) 3.33 (14:00) 0 0 0 0 0
25-04-2019 16.1 (17:10) 4 (00:00) 10.1 10 (12:50) 3.89 (12:00) 0 0 0 0 0
24-04-2019 17.6 (15:50) 1.6 (00:00) 9.6 14.72 (09:30) 6.67 (14:10) 1.2 0 1.2 0 0
23-04-2019 15.2 (18:20) 6.5 (00:00) 10.8 7.78 (16:00) 4.17 (02:10) 1 0 0 0 1

Gráficas

Temp. máximas Temp. mínimas Temp. medias Precipitaciones Rachas de viento máximas Velocidades máximas media en intervalos de 10 minutos

Datos horarios

Fecha y hora oficial Temperatura (ºC) Velocidad del viento (km/h) Dirección del viento Racha (km/h) Dirección de racha Precipitación (mm) Presión (hPa) Tendencia (hPa) Humedad (%)
2019-05-22 23:00:00 12.8 0 Calma 3 Este 0 -- -- 85
2019-05-22 22:00:00 15.6 0 Calma 3 Sudeste 0 -- -- 78
2019-05-22 21:00:00 19 2 Oeste 12 Oeste 0 -- -- 70
2019-05-22 20:00:00 21.7 5 Oeste 13 Oeste 0 -- -- 60
2019-05-22 19:00:00 22 6 Oeste 16 Norte 0 -- -- 60
2019-05-22 18:00:00 23.1 8 Noroeste 18 Noroeste 0 -- -- 59
2019-05-22 17:00:00 23.7 8 Oeste 19 Oeste 0 -- -- 51
2019-05-22 16:00:00 23.9 7 Sudoeste 19 Oeste 0 -- -- 51
2019-05-22 15:00:00 23.7 8 Oeste 21 Oeste 0 -- -- 48
2019-05-22 14:00:00 23.4 10 Oeste 19 Oeste 0 -- -- 48
2019-05-22 13:00:00 22.4 8 Noroeste 19 Norte 0 -- -- 50
2019-05-22 12:00:00 20.6 5 Nordeste 19 Este 0 -- -- 44
2019-05-22 11:00:00 17.8 13 Este 23 Este 0 -- -- 48
2019-05-22 10:00:00 10.7 4 Noroeste 8 Noroeste 0 -- -- 86
2019-05-22 09:00:00 6.1 0 Calma 5 Este 0 -- -- 100
2019-05-22 08:00:00 3 0 Calma 4 Este 0 -- -- 100
2019-05-22 07:00:00 3.1 0 Calma 4 Este 0 -- -- 100
2019-05-22 06:00:00 3.4 0 Calma 4 Sudeste 0 -- -- 100
2019-05-22 05:00:00 3.5 0 Calma -- -- 0 -- -- 100
2019-05-22 04:00:00 4.2 0 Calma -- -- 0 -- -- 99
2019-05-22 03:00:00 4.9 0 Calma -- -- 0 -- -- 98
2019-05-22 02:00:00 5.7 0 Calma -- -- 0 -- -- 97
2019-05-22 01:00:00 6.7 0 Calma -- -- 0 -- -- 97
2019-05-22 00:00:00 8 0 Calma 2 Sudeste 0 -- -- 93
2019-05-21 23:00:00 9.5 0 Calma 3 Sudeste 0 -- -- 91
2019-05-21 22:00:00 11.4 0 Calma 6 Noroeste 0 -- -- 87
2019-05-21 21:00:00 13.9 4 Oeste 10 Noroeste 0 -- -- 81
2019-05-21 20:00:00 15 4 Oeste 14 Noroeste 0 -- -- 75
2019-05-21 19:00:00 15.3 6 Noroeste 15 Oeste 0 -- -- 73
2019-05-21 18:00:00 16.1 4 Sudoeste 16 Sudoeste 0 -- -- 72
2019-05-21 17:00:00 16.8 3 Sur 16 Oeste 0 -- -- 72
2019-05-21 16:00:00 17.7 3 Nordeste 22 Oeste 0 -- -- 64
2019-05-21 15:00:00 18.1 8 Oeste 22 Oeste 0 -- -- 62
2019-05-21 14:00:00 16.9 15 Oeste 26 Sudoeste 0 -- -- 64
2019-05-21 13:00:00 17.2 9 Oeste 19 Oeste 0 -- -- 65
2019-05-21 12:00:00 16.9 9 Noroeste 16 Oeste 0 -- -- 66
2019-05-21 11:00:00 13.8 4 Norte 10 Noroeste 0 -- -- 66
2019-05-21 10:00:00 9.2 2 Este 4 Nordeste 0 -- -- 91
2019-05-21 09:00:00 5.8 0 Calma 4 Este 0 -- -- 100
2019-05-21 08:00:00 3 0 Calma 3 Este 0 -- -- 100
2019-05-21 07:00:00 2.6 0 Calma 3 Este 0 -- -- 100
2019-05-21 06:00:00 2.8 0 Calma 3 Sudeste 0 -- -- 100
2019-05-21 05:00:00 3.3 0 Calma 3 Este 0 -- -- 99
2019-05-21 04:00:00 4.1 0 Calma 4 Sur 0 -- -- 98
2019-05-21 03:00:00 5.1 3 Este 3 Sur 0 -- -- 98
2019-05-21 02:00:00 6.3 0 Calma 4 Sur 0 -- -- 97
2019-05-21 01:00:00 7.4 0 Calma 3 Sudoeste 0 -- -- 97
2019-05-21 00:00:00 8.3 2 Sudeste 4 Este 0 -- -- 96
2019-05-20 23:00:00 9 0 Calma 2 Sudoeste 0 -- -- 92
2019-05-20 22:00:00 10.4 2 Sudoeste 6 Norte 0 -- -- 89
2019-05-20 21:00:00 11.3 3 Noroeste 9 Oeste 0 -- -- 86
2019-05-20 20:00:00 11.6 4 Noroeste 9 Noroeste 0 -- -- 86
2019-05-20 19:00:00 11.7 5 Noroeste 13 Oeste 0 -- -- 86
2019-05-20 18:00:00 12.2 8 Oeste 19 Noroeste 0 -- -- 83
2019-05-20 17:00:00 13.7 10 Oeste 20 Oeste 0 -- -- 78
2019-05-20 16:00:00 14.9 10 Oeste 19 Oeste 0 -- -- 71
2019-05-20 15:00:00 15.1 6 Oeste 21 Este 0 -- -- 63
2019-05-20 14:00:00 15.6 8 Este 16 Sudoeste 0 -- -- 63
2019-05-20 13:00:00 14.9 5 Nordeste 21 Oeste 0 -- -- 60
2019-05-20 12:00:00 13.9 2 Nordeste 14 Noroeste 0 -- -- 62
2019-05-20 11:00:00 12.4 5 Noroeste 10 Norte 0 -- -- 76
2019-05-20 10:00:00 8.6 2 Este 5 Este 0 -- -- 91
2019-05-20 09:00:00 5.7 2 Nordeste 5 Este 0 -- -- 100
2019-05-20 08:00:00 3 0 Calma 2 Este 0 -- -- 100
2019-05-20 07:00:00 3.5 0 Calma 3 Sur 0 -- -- 99
2019-05-20 06:00:00 4.3 0 Calma 4 Este 0 -- -- 99
2019-05-20 05:00:00 5.4 0 Calma 3 Noroeste 0 -- -- 100
2019-05-20 04:00:00 4.9 0 Calma -- -- 0 -- -- 100
2019-05-20 03:00:00 5 0 Calma -- -- 0 -- -- 97
2019-05-20 02:00:00 6.2 0 Calma 2 Sudeste 0 -- -- 96
2019-05-20 01:00:00 7.3 0 Calma 3 Sudoeste 0 -- -- 94
2019-05-20 00:00:00 7.6 0 Calma 2 Sudoeste 0 -- -- 94
2019-05-19 23:00:00 7.9 0 Calma 3 Sudeste 0 -- -- 90
2019-05-19 22:00:00 9.6 0 Calma 11 Oeste 0 -- -- 85
2019-05-19 21:00:00 10.5 6 Oeste 25 Sudoeste 0 -- -- 77
2019-05-19 20:00:00 10.9 9 Oeste 18 Oeste 0 -- -- 77
2019-05-19 19:00:00 11.2 10 Oeste 24 Oeste 0 -- -- 75
2019-05-19 18:00:00 11.9 13 Oeste 29 Sudoeste 0 -- -- 72
2019-05-19 17:00:00 12.5 10 Oeste 28 Sudoeste 0 -- -- 71
2019-05-19 16:00:00 14.3 8 Noroeste 28 Noroeste 0 -- -- 63
2019-05-19 15:00:00 12.8 8 Oeste 31 Oeste 0 -- -- 63
2019-05-19 14:00:00 12.3 8 Noroeste 21 Noroeste 0 -- -- 67
2019-05-19 13:00:00 11.1 8 Oeste 15 Oeste 0 -- -- 70
2019-05-19 12:00:00 10.3 6 Noroeste 12 Noroeste 0 -- -- 74
2019-05-19 11:00:00 9.4 4 Oeste 13 Oeste 0 -- -- 81
2019-05-19 10:00:00 8.9 5 Oeste 10 Sudoeste 0 -- -- 79
2019-05-19 09:00:00 8.1 0 Calma 3 Noroeste 0 -- -- 91
2019-05-19 08:00:00 7.8 0 Calma 12 Oeste 0 -- -- 92
2019-05-19 07:00:00 7.9 5 Oeste 20 Oeste 0 -- -- 88
2019-05-19 06:00:00 8.4 7 Sudoeste 15 Oeste 0 -- -- 84
2019-05-19 05:00:00 8.8 8 Oeste 16 Oeste 0 -- -- 81
2019-05-19 04:00:00 8.1 0 Calma 11 Sudoeste 0 -- -- 95
2019-05-19 03:00:00 7.9 5 Sudoeste 14 Oeste 0 -- -- 93
2019-05-19 02:00:00 6.7 0 Calma 3 Sudoeste 0 -- -- 100
2019-05-19 01:00:00 6.5 0 Calma 3 Noroeste 0 -- -- 99
2019-05-19 00:00:00 6 0 Calma 4 Sudeste 0 -- -- 97
2019-05-18 23:00:00 6.9 0 Calma 5 Sudoeste 0 -- -- 93
2019-05-18 22:00:00 8.7 4 Sudoeste 21 Noroeste 0 -- -- 86
2019-05-18 21:00:00 9.9 5 Oeste 19 Oeste 0 -- -- 78
2019-05-18 20:00:00 9.7 10 Oeste 27 Oeste 0 -- -- 79
2019-05-18 19:00:00 9.9 7 Oeste 27 Oeste 0.2 -- -- 79
2019-05-18 18:00:00 10.3 15 Oeste 32 Sudoeste 0 -- -- 78
2019-05-18 17:00:00 11.3 10 Noroeste 27 Oeste 0 -- -- 77
2019-05-18 16:00:00 9.6 6 Oeste 21 Oeste 0 -- -- 84
2019-05-18 15:00:00 10.8 4 Noroeste 14 Oeste 0 -- -- 79
2019-05-18 14:00:00 10.5 9 Oeste 22 Noroeste 0.2 -- -- 83
2019-05-18 13:00:00 10.6 6 Oeste 18 Noroeste 0 -- -- 81
2019-05-18 12:00:00 8.8 3 Oeste 7 Norte 0.6 -- -- 93
2019-05-18 11:00:00 7.1 2 Este 4 Este 1.2 -- -- 99
2019-05-18 10:00:00 6.1 0 Calma 3 Norte 1.2 -- -- 100
2019-05-18 09:00:00 5.4 0 Calma 8 Sur 0.6 -- -- 100
2019-05-18 08:00:00 4.3 0 Calma 4 Norte 0.4 -- -- 100
2019-05-18 07:00:00 3.6 0 Calma 4 Noroeste 0 -- -- 100
2019-05-18 06:00:00 3.8 0 Calma 5 Sudoeste 0 -- -- 100
2019-05-18 05:00:00 4 3 Sur 6 Sur 0 -- -- 100
2019-05-18 04:00:00 3.5 0 Calma 9 Sudeste 0 -- -- 100
2019-05-18 03:00:00 3.4 3 Sudeste 4 Sur 0 -- -- 100
2019-05-18 02:00:00 3.8 0 Calma 5 Este 0 -- -- 98
2019-05-18 01:00:00 4.9 0 Calma 5 Sudoeste 0 -- -- 99
2019-05-18 00:00:00 5.3 2 Sudeste 4 Sur 0 -- -- 96
2019-05-17 23:00:00 6.7 2 Nordeste 8 Oeste 0 -- -- 93
2019-05-17 22:00:00 8.6 8 Noroeste 21 Oeste 0 -- -- 81
2019-05-17 21:00:00 9.3 5 Oeste 27 Noroeste 0 -- -- 81
2019-05-17 20:00:00 10.6 8 Oeste 29 Oeste 0 -- -- 73
2019-05-17 19:00:00 9.8 11 Oeste 32 Oeste 0 -- -- 80
2019-05-17 18:00:00 9.3 4 Oeste 21 Noroeste 0 -- -- 89
2019-05-17 17:00:00 10.1 11 Oeste 23 Oeste 0 -- -- 83
2019-05-17 16:00:00 10.3 8 Oeste 20 Oeste 0.4 -- -- 87
2019-05-17 15:00:00 9.8 8 Oeste 21 Noroeste 0.8 -- -- 89
2019-05-17 14:00:00 9.8 6 Oeste 27 Norte 0 -- -- 81
2019-05-17 13:00:00 9.9 10 Oeste 29 Sudoeste 0 -- -- 79
2019-05-17 12:00:00 8.9 11 Oeste 27 Oeste 0 -- -- 87
2019-05-17 11:00:00 8 8 Oeste 19 Oeste 0 -- -- 91
2019-05-17 10:00:00 8 9 Oeste 25 Oeste 0.4 -- -- 90
2019-05-17 09:00:00 7.5 9 Oeste 27 Oeste 0.4 -- -- 94
2019-05-17 08:00:00 7.6 14 Oeste 38 Oeste 1.2 -- -- 93
2019-05-17 07:00:00 8.6 15 Oeste 36 Oeste 0.8 -- -- 91
2019-05-17 06:00:00 9.6 14 Oeste 28 Oeste 0.2 -- -- 88
2019-05-17 05:00:00 8.2 3 Sudeste 8 Sur 0 -- -- 100
2019-05-17 04:00:00 8.1 3 Norte 5 Sudeste 0 -- -- 99
2019-05-17 03:00:00 8.5 3 Este 33 Oeste 0 -- -- 96
2019-05-17 02:00:00 9.2 5 Oeste 22 Sudoeste 0.2 -- -- 91
2019-05-17 01:00:00 9 3 Oeste 12 Noroeste 0.6 -- -- 99
2019-05-17 00:00:00 9 0 Calma 6 Oeste 1.4 -- -- 99
2019-05-16 23:00:00 9 3 Sudoeste 9 Oeste 3.6 -- -- 99
2019-05-16 22:00:00 9.5 8 Oeste 21 Sudoeste 1.2 -- -- 93
2019-05-16 21:00:00 9.4 6 Sudoeste 34 Oeste 0.8 -- -- 94
2019-05-16 20:00:00 9.9 11 Oeste 25 Oeste 1 -- -- 92
2019-05-16 19:00:00 11.3 6 Sudoeste 12 Sudoeste 0.8 -- -- 96
2019-05-16 18:00:00 11.6 2 Noroeste 13 Norte 1.4 -- -- 94
2019-05-16 17:00:00 12.5 5 Norte 16 Noroeste 0.6 -- -- 91
2019-05-16 16:00:00 14 2 Noroeste 10 Noroeste 0 -- -- 87
2019-05-16 15:00:00 14 4 Noroeste 11 Oeste 0 -- -- 83
2019-05-16 14:00:00 14.2 5 Noroeste 15 Sudoeste 0 -- -- 84
2019-05-16 13:00:00 14.5 6 Noroeste 22 Noroeste 0 -- -- 81
2019-05-16 12:00:00 16.7 10 Noroeste 19 Oeste 0 -- -- 76
2019-05-16 11:00:00 13.8 6 Noroeste 19 Noroeste 0 -- -- 84
2019-05-16 10:00:00 11.8 5 Noroeste 13 Noroeste 0 -- -- 93
2019-05-16 09:00:00 9.5 0 Calma 4 Nordeste 0 -- -- 92
2019-05-16 08:00:00 7.5 0 Calma 4 Noroeste 0 -- -- 99
2019-05-16 07:00:00 6.8 0 Calma 3 Este 0 -- -- 96
2019-05-16 06:00:00 7.4 0 Calma 4 Este 0 -- -- 96
2019-05-16 05:00:00 7.6 0 Calma 5 Este 0 -- -- 98
2019-05-16 04:00:00 7.2 2 Este 4 Sudeste 0 -- -- 98
2019-05-16 03:00:00 7.4 0 Calma 4 Este 0 -- -- 96
2019-05-16 02:00:00 8.4 0 Calma 6 Este 0 -- -- 95
2019-05-16 01:00:00 9.2 0 Calma 2 Sudeste 0 -- -- 94
2019-05-16 00:00:00 10.5 0 Calma 3 Sur 0 -- -- 92
2019-05-15 23:00:00 12.2 0 Calma -- -- 0 -- -- 87
2019-05-15 22:00:00 14.7 0 Calma 3 Este 0 -- -- 79
2019-05-15 21:00:00 18.1 2 Oeste 12 Oeste 0 -- -- 71
2019-05-15 20:00:00 22 5 Oeste 16 Noroeste 0 -- -- 58
2019-05-15 19:00:00 23.8 6 Noroeste 18 Oeste 0 -- -- 52
2019-05-15 18:00:00 24.6 8 Noroeste 20 Noroeste 0 -- -- 55
2019-05-15 17:00:00 25.5 8 Noroeste 17 Noroeste 0 -- -- 52
2019-05-15 16:00:00 25.2 9 Noroeste 17 Noroeste 0 -- -- 50
2019-05-15 15:00:00 24.8 8 Oeste 23 Noroeste 0 -- -- 47
2019-05-15 14:00:00 25.1 6 Noroeste 18 Noroeste 0 -- -- 47
2019-05-15 13:00:00 24.4 7 Noroeste 17 Noroeste 0 -- -- 40
2019-05-15 12:00:00 21.6 10 Noroeste 15 Noroeste 0 -- -- 47
2019-05-15 11:00:00 16.8 2 Noroeste 4 Sur 0 -- -- 48
2019-05-15 10:00:00 11.7 0 Calma 4 Este 0 -- -- 85
2019-05-15 09:00:00 6.4 0 Calma 4 Nordeste 0 -- -- 100
2019-05-15 08:00:00 2.7 0 Calma 5 Este 0 -- -- 99
2019-05-15 07:00:00 2.8 2 Este 5 Este 0 -- -- 98
2019-05-15 06:00:00 3.2 0 Calma 5 Este 0 -- -- 97
2019-05-15 05:00:00 4 0 Calma 0 Calma 0 -- -- 95
2019-05-15 04:00:00 5 0 Calma 0 Calma 0 -- -- 96
2019-05-15 03:00:00 6.1 0 Calma 0 Calma 0 -- -- 96
2019-05-15 02:00:00 7.3 0 Calma -- -- 0 -- -- 95
2019-05-15 01:00:00 8.4 0 Calma -- -- 0 -- -- 96
2019-05-15 00:00:00 9.6 0 Calma -- -- 0 -- -- 95
2019-05-14 23:00:00 11.3 0 Calma -- -- 0 -- -- 90
2019-05-14 22:00:00 13.7 0 Calma 6 Oeste 0 -- -- 83
2019-05-14 21:00:00 16.9 4 Noroeste 14 Norte 0 -- -- 72
2019-05-14 20:00:00 20.3 7 Noroeste 18 Noroeste 0 -- -- 62
2019-05-14 19:00:00 22.1 9 Noroeste 19 Noroeste 0 -- -- 58
2019-05-14 18:00:00 22.6 10 Noroeste 23 Noroeste 0 -- -- 56
2019-05-14 17:00:00 23.8 11 Noroeste 22 Noroeste 0 -- -- 54
2019-05-14 16:00:00 25 9 Noroeste 19 Noroeste 0 -- -- 48
2019-05-14 15:00:00 24.7 9 Noroeste 22 Noroeste 0 -- -- 47
2019-05-14 14:00:00 24.4 10 Noroeste 18 Noroeste 0 -- -- 45
2019-05-14 13:00:00 23.3 9 Este 26 Nordeste 0 -- -- 27
2019-05-14 12:00:00 21.1 14 Este 24 Este 0 -- -- 30
2019-05-14 11:00:00 15 5 Noroeste 9 Noroeste 0 -- -- 49
2019-05-14 10:00:00 9.3 2 Este 4 Este 0 -- -- 84
2019-05-14 09:00:00 4.6 0 Calma 6 Este 0 -- -- 100
2019-05-14 08:00:00 1.1 2 Sudeste 4 Sudeste 0 -- -- 100
2019-05-14 07:00:00 1.1 0 Calma 4 Este 0 -- -- 99
2019-05-14 06:00:00 1.7 2 Sudeste 5 Este 0 -- -- 99
2019-05-14 05:00:00 2.1 0 Calma 4 Este 0 -- -- 98
2019-05-14 04:00:00 2.9 0 Calma 5 Este 0 -- -- 98
2019-05-14 03:00:00 3.5 0 Calma 3 Este 0 -- -- 98
2019-05-14 02:00:00 4.3 0 Calma 4 Este 0 -- -- 96
2019-05-14 01:00:00 5.3 0 Calma 3 Este 0 -- -- 95
2019-05-14 00:00:00 6.4 0 Calma 4 Este 0 -- -- 93
2019-05-13 23:00:00 7.9 0 Calma 4 Este 0 -- -- 88
2019-05-13 22:00:00 10.1 0 Calma 8 Sudoeste 0 -- -- 80
2019-05-13 21:00:00 13.3 4 Oeste 14 Noroeste 0 -- -- 69
2019-05-13 20:00:00 17.2 7 Noroeste 20 Noroeste 0 -- -- 58
2019-05-13 19:00:00 18.6 8 Noroeste 19 Noroeste 0 -- -- 58
2019-05-13 18:00:00 19.9 9 Noroeste 20 Noroeste 0 -- -- 53
2019-05-13 17:00:00 21.3 8 Noroeste 21 Este 0 -- -- 47
2019-05-13 16:00:00 21 8 Nordeste 22 Este 0 -- -- 46
2019-05-13 15:00:00 20.9 6 Este 20 Este 0 -- -- 41
2019-05-13 14:00:00 20.7 8 Este 23 Este 0 -- -- 43
2019-05-13 13:00:00 19.9 8 Este 22 Este 0 -- -- 36
2019-05-13 12:00:00 18.1 8 Noroeste 13 Noroeste 0 -- -- 57
2019-05-13 11:00:00 13.9 5 Noroeste 9 Norte 0 -- -- 66
2019-05-13 10:00:00 9.1 2 Norte 4 Norte 0 -- -- 87
2019-05-13 09:00:00 5.4 0 Calma 5 Este 0 -- -- 100
2019-05-13 08:00:00 2.6 0 Calma -- -- 0 -- -- 100
2019-05-13 07:00:00 2.7 0 Calma -- -- 0 -- -- 100
2019-05-13 06:00:00 3.1 0 Calma -- -- 0 -- -- 100
2019-05-13 05:00:00 3.8 0 Calma -- -- 0 -- -- 100
2019-05-13 04:00:00 4.3 0 Calma -- -- 0 -- -- 98
2019-05-13 03:00:00 5 0 Calma 3 Sur 0 -- -- 99
2019-05-13 02:00:00 5.7 0 Calma 4 Este 0 -- -- 97
2019-05-13 01:00:00 6.6 2 Sudeste 4 Nordeste 0 -- -- 97
2019-05-13 00:00:00 7.8 0 Calma -- -- 0 -- -- 94
2019-05-12 23:00:00 9.2 0 Calma 2 Sur 0 -- -- 91
2019-05-12 22:00:00 11.2 0 Calma 10 Oeste 0 -- -- 87
2019-05-12 21:00:00 13.9 3 Oeste 18 Noroeste 0 -- -- 78
2019-05-12 20:00:00 16.7 8 Noroeste 17 Noroeste 0 -- -- 70
2019-05-12 19:00:00 19.2 10 Noroeste 18 Noroeste 0 -- -- 64
2019-05-12 18:00:00 19.8 8 Noroeste 17 Noroeste 0 -- -- 65
2019-05-12 17:00:00 20.6 10 Noroeste 19 Norte 0 -- -- 61
2019-05-12 16:00:00 21 8 Noroeste 20 Noroeste 0 -- -- 59
2019-05-12 15:00:00 20.7 8 Noroeste 19 Noroeste 0 -- -- 48
2019-05-12 14:00:00 20.6 9 Noroeste 18 Noroeste 0 -- -- 46
2019-05-12 13:00:00 18.9 8 Noroeste 15 Noroeste 0 -- -- 52
2019-05-12 12:00:00 17 6 Noroeste 11 Noroeste 0 -- -- 44
2019-05-12 11:00:00 12.2 3 Noroeste 5 Noroeste 0 -- -- 64
2019-05-12 10:00:00 7.5 0 Calma 3 Nordeste 0 -- -- 99
2019-05-12 09:00:00 3.9 0 Calma 3 Nordeste 0 -- -- 100
2019-05-12 08:00:00 1.4 0 Calma 4 Este 0 -- -- 100
2019-05-12 07:00:00 1.2 0 Calma 3 Este 0 -- -- 100
2019-05-12 06:00:00 1.7 0 Calma 0 Calma 0 -- -- 100
2019-05-12 05:00:00 2.1 0 Calma 4 Este 0 -- -- 100
2019-05-12 04:00:00 2.6 0 Calma 4 Sur 0 -- -- 100
2019-05-12 03:00:00 3.1 0 Calma 3 Sur 0 -- -- 100
2019-05-12 02:00:00 3.9 0 Calma 3 Este 0 -- -- 99
2019-05-12 01:00:00 4.9 0 Calma 3 Sudeste 0 -- -- 98
2019-05-12 00:00:00 5.9 0 Calma 2 Sudeste 0 -- -- 97
2019-05-11 23:00:00 7.2 0 Calma 3 Sur 0 -- -- 95
2019-05-11 22:00:00 8.9 0 Calma 4 Oeste 0 -- -- 93
2019-05-11 21:00:00 11.4 0 Calma 6 Oeste 0 -- -- 87
2019-05-11 20:00:00 12.5 4 Oeste 10 Oeste 0 -- -- 83
2019-05-11 19:00:00 13.8 6 Oeste 15 Oeste 0 -- -- 71
2019-05-11 18:00:00 15.1 6 Noroeste 18 Sudoeste 0 -- -- 72
2019-05-11 17:00:00 13.6 9 Oeste 22 Oeste 0 -- -- 75
2019-05-11 16:00:00 14.2 8 Oeste 26 Oeste 0 -- -- 76
2019-05-11 15:00:00 13.5 12 Oeste 24 Oeste 0 -- -- 76
2019-05-11 14:00:00 14 8 Sudoeste 19 Oeste 0 -- -- 75
2019-05-11 13:00:00 12.9 9 Oeste 21 Oeste 0 -- -- 78
2019-05-11 12:00:00 12.9 4 Oeste 19 Oeste 0 -- -- 82
2019-05-11 11:00:00 11.7 5 Oeste 23 Oeste 0 -- -- 89
2019-05-11 10:00:00 11.2 9 Oeste 21 Oeste 0 -- -- 90
2019-05-11 09:00:00 10.1 6 Sudoeste 18 Oeste 0 -- -- 95
2019-05-11 08:00:00 9.9 9 Oeste 21 Oeste 0 -- -- 93
2019-05-11 07:00:00 9.7 3 Sudoeste 8 Sudoeste 0.2 -- -- 99
2019-05-11 06:00:00 10.1 4 Sudoeste 11 Oeste 0.4 -- -- 97
2019-05-11 05:00:00 10.2 0 Calma 3 Norte 0.6 -- -- 100
2019-05-11 04:00:00 10.3 0 Calma 3 Este 0.2 -- -- 99
2019-05-11 03:00:00 10.4 0 Calma 12 Sudoeste 0.2 -- -- 98
2019-05-11 02:00:00 10.8 0 Calma 9 Sur 0 -- -- 97
2019-05-11 01:00:00 11 4 Sudoeste 8 Oeste 0 -- -- 99
2019-05-11 00:00:00 11.3 3 Sudoeste 12 Sudoeste 0.2 -- -- 96
2019-05-10 23:00:00 12 5 Sudoeste 15 Oeste 0.2 -- -- 95
2019-05-10 22:00:00 13 2 Oeste 8 Sudoeste 0.6 -- -- 97
2019-05-10 21:00:00 13.6 4 Oeste 25 Oeste 0 -- -- 93
2019-05-10 20:00:00 15.4 12 Oeste 27 Oeste 0 -- -- 81
2019-05-10 19:00:00 17.4 11 Oeste 22 Oeste 0 -- -- 76
2019-05-10 18:00:00 18.5 6 Norte 13 Noroeste 0 -- -- 79
2019-05-10 17:00:00 16.6 0 Calma 6 Nordeste 0 -- -- 84
2019-05-10 16:00:00 14.6 3 Este 24 Oeste 0 -- -- 92
2019-05-10 15:00:00 16.4 15 Oeste 28 Oeste 0 -- -- 86
2019-05-10 14:00:00 19.1 9 Noroeste 20 Noroeste 0 -- -- 83
2019-05-10 13:00:00 18 6 Noroeste 10 Noroeste 0 -- -- 88
2019-05-10 12:00:00 15.9 5 Noroeste 10 Noroeste 0 -- -- 92
2019-05-10 11:00:00 14.9 5 Noroeste 9 Noroeste 0 -- -- 100
2019-05-10 10:00:00 12.9 3 Oeste 6 Oeste 0 -- -- 100
2019-05-10 09:00:00 11.3 0 Calma 5 Nordeste 0 -- -- 100
2019-05-10 08:00:00 9.9 2 Sur 6 Oeste 0 -- -- 100
2019-05-10 07:00:00 9.5 3 Este 7 Sudoeste 0 -- -- 100
2019-05-10 06:00:00 9.6 4 Sur 9 Este 0 -- -- 100
2019-05-10 05:00:00 9.6 3 Este 4 Este 0 -- -- 100
2019-05-10 04:00:00 10.4 0 Calma 5 Este 0 -- -- 100
2019-05-10 03:00:00 11.3 2 Este 8 Este 0 -- -- 100
2019-05-10 02:00:00 11.5 0 Calma 6 Oeste 0.4 -- -- 100
2019-05-10 01:00:00 11.5 2 Oeste 11 Este 0.4 -- -- 100
2019-05-10 00:00:00 10.4 5 Este 10 Este 1.4 -- -- 100
2019-05-09 23:00:00 9.8 2 Sudeste 5 Sudoeste 1.2 -- -- 100
2019-05-09 22:00:00 9.6 3 Sudeste 6 Sudoeste 1.6 -- -- 98
2019-05-09 21:00:00 9.8 2 Noroeste 8 Oeste 0.2 -- -- 95
2019-05-09 20:00:00 10.1 2 Noroeste 21 Noroeste 0.2 -- -- 91
2019-05-09 19:00:00 11.3 8 Noroeste 18 Norte 0 -- -- 86
2019-05-09 18:00:00 12.1 6 Noroeste 17 Oeste 0 -- -- 83
2019-05-09 17:00:00 13.6 9 Noroeste 16 Noroeste 0 -- -- 79
2019-05-09 16:00:00 15.1 5 Noroeste 12 Noroeste 0.2 -- -- 77
2019-05-09 15:00:00 16.6 5 Noroeste 15 Oeste 0 -- -- 61
2019-05-09 14:00:00 16.1 8 Noroeste 20 Noroeste 0 -- -- 65
2019-05-09 13:00:00 16.7 6 Noroeste 13 Noroeste 0 -- -- 56
2019-05-09 12:00:00 14.8 6 Noroeste 10 Noroeste 0 -- -- 57
2019-05-09 11:00:00 10.1 2 Este 5 Nordeste 0 -- -- 81
2019-05-09 10:00:00 7.7 3 Oeste 5 Oeste 0 -- -- 92
2019-05-09 09:00:00 4.4 3 Este 5 Este 0 -- -- 100
2019-05-09 08:00:00 2.1 0 Calma 3 Nordeste 0 -- -- 100
2019-05-09 07:00:00 1.7 0 Calma 4 Este 0 -- -- 100
2019-05-09 06:00:00 2 2 Sudeste 5 Este 0 -- -- 100
2019-05-09 05:00:00 2.5 0 Calma 5 Sur 0 -- -- 99
2019-05-09 04:00:00 3 0 Calma 4 Sur 0 -- -- 98
2019-05-09 03:00:00 3.8 2 Sudeste 5 Este 0 -- -- 98
2019-05-09 02:00:00 4.6 2 Oeste 5 Sudeste 0 -- -- 97
2019-05-09 01:00:00 5.7 0 Calma 5 Este 0 -- -- 96
2019-05-09 00:00:00 7 0 Calma 3 Este 0 -- -- 94
2019-05-08 23:00:00 8.5 2 Sudoeste 6 Sur 0 -- -- 92
2019-05-08 22:00:00 10.9 2 Sur 9 Sudoeste 0 -- -- 85
2019-05-08 21:00:00 13.8 4 Noroeste 14 Oeste 0 -- -- 75
2019-05-08 20:00:00 17.3 4 Oeste 18 Oeste 0 -- -- 66
2019-05-08 19:00:00 17.6 5 Oeste 15 Noroeste 0 -- -- 63
2019-05-08 18:00:00 16.8 5 Oeste 14 Noroeste 0 -- -- 65
2019-05-08 17:00:00 17 6 Norte 26 Noroeste 0 -- -- 62
2019-05-08 16:00:00 17 4 Oeste 24 Oeste 0 -- -- 63
2019-05-08 15:00:00 16.5 6 Este 29 Oeste 0 -- -- 74
2019-05-08 14:00:00 15.9 8 Noroeste 17 Noroeste 0 -- -- 81
2019-05-08 13:00:00 14.9 7 Noroeste 16 Noroeste 0 -- -- 83
2019-05-08 12:00:00 12.3 8 Oeste 20 Oeste 0 -- -- 93
2019-05-08 11:00:00 11.7 2 Nordeste 8 Noroeste 0.6 -- -- 95
2019-05-08 10:00:00 11.2 4 Oeste 24 Oeste 0.2 -- -- 92
2019-05-08 09:00:00 12 2 Sudoeste 8 Oeste 0.4 -- -- 93
2019-05-08 08:00:00 12.1 5 Oeste 17 Este 0 -- -- 88
2019-05-08 07:00:00 13.8 10 Sudeste 26 Oeste 0 -- -- 73
2019-05-08 06:00:00 14.5 12 Este 31 Este 0 -- -- 70
2019-05-08 05:00:00 14.5 12 Este 31 Nordeste 0 -- -- 67
2019-05-08 04:00:00 16 8 Este 19 Nordeste 0 -- -- 51
2019-05-08 03:00:00 14.9 4 Sudeste 19 Nordeste 0 -- -- 60
2019-05-08 02:00:00 16 9 Este 20 Nordeste 0 -- -- 50
2019-05-08 01:00:00 17.6 5 Oeste 31 Sudeste 0 -- -- 47
2019-05-08 00:00:00 15 5 Noroeste 19 Este 0 -- -- 65
2019-05-07 23:00:00 16.5 9 Este 25 Oeste 0 -- -- 68
2019-05-07 22:00:00 15.1 5 Sudeste 14 Este 0 -- -- 71
2019-05-07 21:00:00 14.8 3 Sur 6 Sur 0 -- -- 84
2019-05-07 20:00:00 16.3 3 Sudeste 8 Noroeste 0 -- -- 76
2019-05-07 19:00:00 17 4 Noroeste 14 Noroeste 0 -- -- 70
2019-05-07 18:00:00 18.7 9 Noroeste 18 Oeste 0 -- -- 65
2019-05-07 17:00:00 18.9 6 Noroeste 14 Noroeste 0 -- -- 66
2019-05-07 16:00:00 19.5 7 Norte 21 Este 0 -- -- 66
2019-05-07 15:00:00 19.3 9 Oeste 22 Oeste 0 -- -- 63
2019-05-07 14:00:00 20.3 8 Noroeste 17 Norte 0 -- -- 61
2019-05-07 13:00:00 19.9 5 Sur 15 Oeste 0 -- -- 59
2019-05-07 12:00:00 17.8 7 Oeste 13 Oeste 0 -- -- 66
2019-05-07 11:00:00 14.1 3 Oeste 8 Noroeste 0 -- -- 74
2019-05-07 10:00:00 10.7 2 Nordeste 5 Este 0 -- -- 93
2019-05-07 09:00:00 7.7 3 Sudeste 4 Este 0 -- -- 100
2019-05-07 08:00:00 6.1 2 Este 4 Este 0 -- -- 100
2019-05-07 07:00:00 5.4 0 Calma 4 Este 0 -- -- 100
2019-05-07 06:00:00 5.4 2 Sur 5 Este 0 -- -- 100
2019-05-07 05:00:00 5.3 2 Este 4 Este 0 -- -- 99
2019-05-07 04:00:00 5.6 0 Calma 4 Este 0 -- -- 98
2019-05-07 03:00:00 6.3 0 Calma 3 Sudeste 0 -- -- 96
2019-05-07 02:00:00 7.3 0 Calma 4 Este 0 -- -- 96
2019-05-07 01:00:00 8.1 0 Calma 5 Sudeste 0 -- -- 94
2019-05-07 00:00:00 9.4 2 Sur 6 Este 0 -- -- 90
2019-05-06 23:00:00 10.7 2 Sudeste 7 Este 0 -- -- 87
2019-05-06 22:00:00 12.3 2 Sudoeste 8 Noroeste 0 -- -- 78
2019-05-06 21:00:00 14.5 4 Noroeste 15 Noroeste 0 -- -- 70
2019-05-06 20:00:00 16.6 5 Noroeste 12 Oeste 0 -- -- 63
2019-05-06 19:00:00 17.6 4 Norte 23 Oeste 0 -- -- 54
2019-05-06 18:00:00 20.7 9 Noroeste 21 Noroeste 0 -- -- 51
2019-05-06 17:00:00 21.5 5 Oeste 18 Noroeste 0 -- -- 51
2019-05-06 16:00:00 21.1 10 Noroeste 18 Oeste 0 -- -- 52
2019-05-06 15:00:00 20.4 10 Oeste 23 Noroeste 0 -- -- 47
2019-05-06 14:00:00 21 10 Oeste 20 Oeste 0 -- -- 48
2019-05-06 13:00:00 20.3 7 Noroeste 16 Noroeste 0 -- -- 44
2019-05-06 12:00:00 18.7 5 Noroeste 16 Noroeste 0 -- -- 52
2019-05-06 11:00:00 14.6 6 Noroeste 11 Norte 0 -- -- 63
2019-05-06 10:00:00 9.3 0 Calma 4 Nordeste 0 -- -- 84
2019-05-06 09:00:00 4.6 0 Calma 4 Este 0 -- -- 100
2019-05-06 08:00:00 1.5 0 Calma 4 Este 0 -- -- 100
2019-05-06 07:00:00 1.5 0 Calma 4 Este 0 -- -- 99
2019-05-06 06:00:00 2 3 Sudeste 4 Sur 0 -- -- 100
2019-05-06 05:00:00 2.4 0 Calma 4 Nordeste 0 -- -- 100
2019-05-06 04:00:00 2.7 0 Calma 4 Noroeste 0 -- -- 100
2019-05-06 03:00:00 2.8 2 Oeste 4 Oeste 0 -- -- 99
2019-05-06 02:00:00 2.9 0 Calma 3 Este 0 -- -- 97
2019-05-06 01:00:00 3.2 0 Calma 4 Este 0 -- -- 95
2019-05-06 00:00:00 3.8 0 Calma 3 Sur 0 -- -- 92
2019-05-05 23:00:00 5.1 0 Calma 2 Sur 0 -- -- 87
2019-05-05 22:00:00 6.8 0 Calma 6 Oeste 0 -- -- 79
2019-05-05 21:00:00 9.7 4 Oeste 13 Noroeste 0 -- -- 67
2019-05-05 20:00:00 12.7 8 Noroeste 19 Oeste 0 -- -- 57
2019-05-05 19:00:00 14.6 7 Oeste 19 Este 0 -- -- 55
2019-05-05 18:00:00 14.5 10 Este 20 Este 0 -- -- 53
2019-05-05 17:00:00 15.2 12 Nordeste 25 Este 0 -- -- 48
2019-05-05 16:00:00 15.3 10 Este 23 Este 0 -- -- 48
2019-05-05 15:00:00 14.5 13 Este 23 Este 0 -- -- 54
2019-05-05 14:00:00 13.6 6 Este 23 Este 0 -- -- 55
2019-05-05 13:00:00 12.4 10 Este 22 Este 0 -- -- 52
2019-05-05 12:00:00 11.1 10 Este 25 Este 0 -- -- 55
2019-05-05 11:00:00 8.9 4 Sudoeste 16 Sudoeste 0 -- -- 66
2019-05-05 10:00:00 7.6 10 Este 22 Nordeste 0 -- -- 80
2019-05-05 09:00:00 5.3 2 Noroeste 3 Noroeste 0 -- -- 100
2019-05-05 08:00:00 4.1 0 Calma 2 Sudeste 0 -- -- 100
2019-05-05 07:00:00 4.1 0 Calma 2 Sur 0 -- -- 99
2019-05-05 06:00:00 4.6 0 Calma 3 Sur 0 -- -- 97
2019-05-05 05:00:00 5.6 2 Sudoeste 8 Sur 0 -- -- 96
2019-05-05 04:00:00 6.4 3 Sudoeste 13 Sudeste 0 -- -- 92
2019-05-05 03:00:00 6.9 6 Sudeste 17 Sudeste 0.2 -- -- 91
2019-05-05 02:00:00 7.1 4 Oeste 11 Oeste 0.2 -- -- 99
2019-05-05 01:00:00 7.3 0 Calma 10 Oeste 0 -- -- 97
2019-05-05 00:00:00 7.7 4 Sudoeste 12 Sudoeste 0 -- -- 93
2019-05-04 23:00:00 8.3 3 Sudoeste 13 Oeste 0.2 -- -- 95
2019-05-04 22:00:00 9 11 Oeste 30 Oeste 1 -- -- 93
2019-05-04 21:00:00 9 4 Oeste 19 Sur 0.6 -- -- 95
2019-05-04 20:00:00 9.8 7 Oeste 38 Oeste 0 -- -- 86
2019-05-04 19:00:00 10.6 9 Oeste 32 Oeste 0 -- -- 82
2019-05-04 18:00:00 11 11 Oeste 30 Oeste 0 -- -- 78
2019-05-04 17:00:00 12 14 Oeste 29 Oeste 0 -- -- 71
2019-05-04 16:00:00 13.5 12 Oeste 31 Oeste 0 -- -- 72
2019-05-04 15:00:00 14.4 11 Sudoeste 28 Noroeste 0 -- -- 68
2019-05-04 14:00:00 15 12 Oeste 26 Oeste 0 -- -- 61
2019-05-04 13:00:00 14.3 8 Sudoeste 20 Oeste 0 -- -- 58
2019-05-04 12:00:00 13.4 7 Noroeste 20 Noroeste 0 -- -- 63
2019-05-04 11:00:00 11.1 5 Norte 12 Noroeste 0 -- -- 75
2019-05-04 10:00:00 7.2 2 Nordeste 5 Nordeste 0 -- -- 100
2019-05-04 09:00:00 3.6 0 Calma 4 Este 0 -- -- 100
2019-05-04 08:00:00 1 0 Calma 3 Este 0 -- -- 100
2019-05-04 07:00:00 1.2 0 Calma 4 Este 0 -- -- 100
2019-05-04 06:00:00 2.1 0 Calma 2 Este 0 -- -- 100
2019-05-04 05:00:00 3.3 2 Sudeste 3 Sudeste 0 -- -- 100
2019-05-04 04:00:00 3.7 0 Calma 4 Este 0 -- -- 100
2019-05-04 03:00:00 4.2 0 Calma 3 Este 0 -- -- 100
2019-05-04 02:00:00 5 0 Calma 3 Este 0 -- -- 100
2019-05-04 01:00:00 5.2 0 Calma 4 Este 0 -- -- 98
2019-05-04 00:00:00 6 0 Calma 3 Sur 0 -- -- 96
2019-05-03 23:00:00 8 0 Calma 6 Oeste 0 -- -- 94
2019-05-03 22:00:00 8.6 2 Sudoeste 13 Oeste 0 -- -- 93
2019-05-03 21:00:00 9.2 6 Oeste 11 Oeste 0 -- -- 89
2019-05-03 20:00:00 9.6 5 Oeste 13 Noroeste 0 -- -- 86
2019-05-03 19:00:00 9.5 9 Oeste 20 Oeste 0 -- -- 87
2019-05-03 18:00:00 10.2 7 Oeste 29 Oeste 0 -- -- 83
2019-05-03 17:00:00 10.1 8 Oeste 27 Oeste 0 -- -- 86
2019-05-03 16:00:00 10.8 7 Noroeste 26 Oeste 0 -- -- 86
2019-05-03 15:00:00 9.6 7 Sudoeste 21 Oeste 0 -- -- 88
2019-05-03 14:00:00 9.9 5 Oeste 15 Noroeste 0 -- -- 93
2019-05-03 13:00:00 8.9 5 Oeste 15 Sudoeste 0.6 -- -- 96
2019-05-03 12:00:00 8.1 6 Oeste 14 Oeste 1.8 -- -- 97
2019-05-03 11:00:00 7.7 6 Oeste 13 Oeste 1.6 -- -- 97
2019-05-03 10:00:00 7.5 5 Oeste 12 Oeste 0.6 -- -- 95
2019-05-03 09:00:00 7.4 3 Oeste 13 Oeste 0.4 -- -- 96
2019-05-03 08:00:00 7.3 4 Sudoeste 13 Sudoeste 1.2 -- -- 96
2019-05-03 07:00:00 7.3 3 Oeste 5 Noroeste 0.2 -- -- 98
2019-05-03 06:00:00 7.3 2 Oeste 5 Noroeste 0 -- -- 99
2019-05-03 05:00:00 7.3 0 Calma 4 Oeste 0 -- -- 99
2019-05-03 04:00:00 7.1 0 Calma 3 Sur 0 -- -- 99
2019-05-03 03:00:00 7 0 Calma 5 Oeste 0 -- -- 98
2019-05-03 02:00:00 6.7 0 Calma 2 Sur 0 -- -- 96
2019-05-03 01:00:00 8.2 0 Calma 4 Noroeste 0 -- -- 94
2019-05-03 00:00:00 8.9 3 Noroeste 10 Oeste 0 -- -- 92
2019-05-02 23:00:00 9.3 3 Oeste 15 Oeste 0 -- -- 87
2019-05-02 22:00:00 9.4 10 Oeste 18 Oeste 0 -- -- 84
2019-05-02 21:00:00 9.9 11 Oeste 18 Oeste 0 -- -- 81
2019-05-02 20:00:00 10.4 9 Oeste 25 Oeste 0 -- -- 78
2019-05-02 19:00:00 11 8 Oeste 26 Oeste 0 -- -- 77
2019-05-02 18:00:00 11.6 10 Sudoeste 23 Oeste 0 -- -- 74
2019-05-02 17:00:00 11.9 10 Sudoeste 23 Oeste 0 -- -- 74
2019-05-02 16:00:00 13.2 7 Noroeste 22 Oeste 0 -- -- 69
2019-05-02 15:00:00 13.5 8 Noroeste 18 Noroeste 0 -- -- 61
2019-05-02 14:00:00 12.1 9 Sudoeste 17 Oeste 0 -- -- 67
2019-05-02 13:00:00 12.3 4 Oeste 10 Sur 0 -- -- 69
2019-05-02 12:00:00 11.1 6 Sudoeste 13 Noroeste 0 -- -- 67
2019-05-02 11:00:00 10.5 2 Norte 9 Este 0 -- -- 70
2019-05-02 10:00:00 7.2 3 Nordeste 6 Este 0 -- -- 90
2019-05-02 09:00:00 3.4 0 Calma 4 Norte 0 -- -- 100
2019-05-02 08:00:00 1.4 0 Calma 3 Este 0 -- -- 99
2019-05-02 07:00:00 2.4 0 Calma 5 Este 0 -- -- 99
2019-05-02 06:00:00 3.1 0 Calma 4 Este 0 -- -- 98
2019-05-02 05:00:00 3.9 0 Calma 3 Este 0 -- -- 97
2019-05-02 04:00:00 5.3 0 Calma 4 Oeste 0 -- -- 97
2019-05-02 03:00:00 5.8 2 Oeste 4 Noroeste 0 -- -- 98
2019-05-02 02:00:00 6.4 0 Calma 5 Sudoeste 0 -- -- 93
2019-05-02 01:00:00 7.9 4 Sudoeste 19 Noroeste 0 -- -- 88
2019-05-02 00:00:00 9 9 Noroeste 23 Oeste 0 -- -- 84
2019-05-01 23:00:00 9.2 5 Oeste 15 Sudoeste 0 -- -- 87
2019-05-01 22:00:00 9.3 4 Sudoeste 24 Oeste 0 -- -- 88
2019-05-01 21:00:00 9.5 9 Noroeste 20 Noroeste 0 -- -- 89
2019-05-01 20:00:00 9.8 7 Noroeste 21 Noroeste 0 -- -- 91
2019-05-01 19:00:00 10.7 10 Oeste 20 Oeste 0 -- -- 84
2019-05-01 18:00:00 11.4 7 Oeste 16 Oeste 0 -- -- 79
2019-05-01 17:00:00 11.4 2 Noroeste 6 Noroeste 0 -- -- 82
2019-05-01 16:00:00 10.9 0 Calma 17 Oeste 0 -- -- 86
2019-05-01 15:00:00 11 8 Oeste 25 Oeste 0 -- -- 83
2019-05-01 14:00:00 12.3 5 Oeste 19 Noroeste 0 -- -- 78
2019-05-01 13:00:00 13.2 8 Noroeste 20 Noroeste 0 -- -- 75
2019-05-01 12:00:00 14 6 Noroeste 19 Noroeste 0 -- -- 73
2019-05-01 11:00:00 12.8 5 Noroeste 10 Noroeste 0 -- -- 75
2019-05-01 10:00:00 9.4 0 Calma 5 Nordeste 0 -- -- 90
2019-05-01 09:00:00 6.6 0 Calma 5 Este 0 -- -- 100
2019-05-01 08:00:00 4.1 0 Calma 3 Sudeste 0 -- -- 100
2019-05-01 07:00:00 3.6 0 Calma 4 Este 0 -- -- 100
2019-05-01 06:00:00 4 0 Calma 4 Este 0 -- -- 100
2019-05-01 05:00:00 4.6 2 Este 4 Este 0 -- -- 100
2019-05-01 04:00:00 5.2 0 Calma 4 Este 0 -- -- 100
2019-05-01 03:00:00 5.9 3 Sudeste 4 Sur 0 -- -- 100
2019-05-01 02:00:00 6.3 0 Calma 4 Este 0 -- -- 97
2019-05-01 01:00:00 7.3 0 Calma -- -- 0 -- -- 95
2019-05-01 00:00:00 8.4 0 Calma 0 Calma 0 -- -- 94
2019-04-30 23:00:00 9.8 0 Calma 0 Calma 0 -- -- 91
2019-04-30 22:00:00 11.4 0 Calma 4 Sudoeste 0 -- -- 85
2019-04-30 21:00:00 13.9 4 Oeste 13 Noroeste 0 -- -- 80
2019-04-30 20:00:00 16.5 6 Noroeste 17 Noroeste 0 -- -- 72
2019-04-30 19:00:00 18.4 8 Noroeste 18 Noroeste 0 -- -- 66
2019-04-30 18:00:00 19.7 9 Noroeste 18 Norte 0 -- -- 64
2019-04-30 17:00:00 19.3 8 Oeste 19 Noroeste 0 -- -- 64
2019-04-30 16:00:00 19.9 6 Oeste 22 Noroeste 0 -- -- 64
2019-04-30 15:00:00 20.3 5 Noroeste 22 Oeste 0 -- -- 59
2019-04-30 14:00:00 20.2 9 Oeste 22 Noroeste 0 -- -- 60
2019-04-30 13:00:00 19.3 10 Noroeste 18 Noroeste 0 -- -- 56
2019-04-30 12:00:00 17.8 6 Noroeste 15 Noroeste 0 -- -- 57
2019-04-30 11:00:00 14.5 8 Noroeste 13 Norte 0 -- -- 77
2019-04-30 10:00:00 10 0 Calma 4 Noroeste 0 -- -- 97
2019-04-30 09:00:00 6.4 0 Calma 5 Este 0 -- -- 100
2019-04-30 08:00:00 3.6 0 Calma 3 Este 0 -- -- 100
2019-04-30 07:00:00 3.6 0 Calma 4 Este 0 -- -- 100
2019-04-30 06:00:00 4 0 Calma 3 Sudeste 0 -- -- 100
2019-04-30 05:00:00 4.4 0 Calma 4 Este 0 -- -- 100
2019-04-30 04:00:00 5 0 Calma 3 Este 0 -- -- 99
2019-04-30 03:00:00 5.5 0 Calma 5 Sudeste 0 -- -- 98
2019-04-30 02:00:00 6.3 0 Calma 4 Este 0 -- -- 98
2019-04-30 01:00:00 7.1 0 Calma 3 Este 0 -- -- 96
2019-04-30 00:00:00 8.1 0 Calma 3 Este 0 -- -- 93
2019-04-29 23:00:00 9.7 0 Calma 2 Sur 0 -- -- 90
2019-04-29 22:00:00 11.5 0 Calma 7 Sudoeste 0 -- -- 86
2019-04-29 21:00:00 14.2 4 Oeste 13 Noroeste 0 -- -- 77
2019-04-29 20:00:00 17.7 6 Oeste 16 Oeste 0 -- -- 64
2019-04-29 19:00:00 19.6 9 Noroeste 20 Noroeste 0 -- -- 62
2019-04-29 18:00:00 20.2 12 Noroeste 21 Oeste 0 -- -- 63
2019-04-29 17:00:00 20.7 11 Oeste 22 Norte 0 -- -- 60
2019-04-29 16:00:00 21.2 10 Oeste 20 Noroeste 0 -- -- 60
2019-04-29 15:00:00 20.8 10 Noroeste 23 Noroeste 0 -- -- 57
2019-04-29 14:00:00 20.2 10 Oeste 21 Noroeste 0 -- -- 55
2019-04-29 13:00:00 19.5 9 Noroeste 22 Noroeste 0 -- -- 53
2019-04-29 12:00:00 18.2 10 Noroeste 19 Noroeste 0 -- -- 57
2019-04-29 11:00:00 15.3 8 Noroeste 13 Noroeste 0 -- -- 61
2019-04-29 10:00:00 9.1 0 Calma 3 Noroeste 0 -- -- 92
2019-04-29 09:00:00 5.7 0 Calma 3 Este 0 -- -- 100
2019-04-29 08:00:00 3.4 0 Calma 3 Nordeste 0 -- -- 100
2019-04-29 07:00:00 3.2 0 Calma 3 Este 0 -- -- 100
2019-04-29 06:00:00 3.4 2 Sudeste 5 Oeste 0 -- -- 100
2019-04-29 05:00:00 3.6 0 Calma 4 Oeste 0 -- -- 100
2019-04-29 04:00:00 4.1 0 Calma 4 Este 0 -- -- 100
2019-04-29 03:00:00 4.8 0 Calma 4 Este 0 -- -- 99
2019-04-29 02:00:00 5.3 0 Calma 4 Este 0 -- -- 98
2019-04-29 01:00:00 6.1 2 Sudeste 3 Este 0 -- -- 97
2019-04-29 00:00:00 7 2 Sudeste 3 Sur 0 -- -- 95
2019-04-28 23:00:00 8.2 0 Calma 2 Este 0 -- -- 92
2019-04-28 22:00:00 9.9 0 Calma 4 Sudoeste 0 -- -- 87
2019-04-28 21:00:00 12.4 3 Oeste 12 Noroeste 0 -- -- 77
2019-04-28 20:00:00 15.8 6 Noroeste 17 Noroeste 0 -- -- 68
2019-04-28 19:00:00 17.5 7 Noroeste 19 Noroeste 0 -- -- 66
2019-04-28 18:00:00 18.5 10 Noroeste 20 Noroeste 0 -- -- 61
2019-04-28 17:00:00 19.4 10 Noroeste 24 Noroeste 0 -- -- 64
2019-04-28 16:00:00 19.6 10 Oeste 20 Sudoeste 0 -- -- 55
2019-04-28 15:00:00 19.1 8 Oeste 18 Noroeste 0 -- -- 61
2019-04-28 14:00:00 18.3 9 Noroeste 16 Noroeste 0 -- -- 61
2019-04-28 13:00:00 17 8 Oeste 14 Noroeste 0 -- -- 64
2019-04-28 12:00:00 14.2 4 Norte 10 Noroeste 0 -- -- 58
2019-04-28 11:00:00 11.2 2 Norte 5 Noroeste 0 -- -- 78
2019-04-28 10:00:00 8.7 2 Norte 11 Este 0 -- -- 90
2019-04-28 09:00:00 6.3 4 Sudeste 10 Nordeste 0 -- -- 99
2019-04-28 08:00:00 5.9 2 Sudeste 6 Este 0 -- -- 97
2019-04-28 07:00:00 7.9 0 Calma 2 Sur 0 -- -- 100
2019-04-28 06:00:00 8.1 0 Calma 4 Norte 0 -- -- 100
2019-04-28 05:00:00 8.2 2 Noroeste 6 Noroeste 0 -- -- 100
2019-04-28 04:00:00 8.4 3 Noroeste 5 Noroeste 0.2 -- -- 100
2019-04-28 03:00:00 8.6 0 Calma 3 Oeste 0 -- -- 100
2019-04-28 02:00:00 8.7 0 Calma 2 Sur 0 -- -- 99
2019-04-28 01:00:00 8.7 0 Calma 2 Sudoeste 0 -- -- 99
2019-04-28 00:00:00 8.9 0 Calma 7 Sudoeste 0.2 -- -- 99
2019-04-27 23:00:00 9 3 Oeste 10 Oeste 0.2 -- -- 98
2019-04-27 22:00:00 9.3 5 Oeste 9 Oeste 0 -- -- 97
2019-04-27 21:00:00 9.8 2 Oeste 8 Oeste 0 -- -- 96
2019-04-27 20:00:00 10.1 3 Oeste 12 Oeste 0 -- -- 94
2019-04-27 19:00:00 10.5 4 Oeste 17 Oeste 0 -- -- 92
2019-04-27 18:00:00 11.2 3 Oeste 10 Noroeste 0.2 -- -- 93
2019-04-27 17:00:00 11 3 Oeste 7 Noroeste 0 -- -- 95
2019-04-27 16:00:00 10.9 2 Oeste 7 Sur 0.2 -- -- 95
2019-04-27 15:00:00 11.1 0 Calma 11 Oeste 0 -- -- 92
2019-04-27 14:00:00 11.6 8 Oeste 17 Oeste 0 -- -- 89
2019-04-27 13:00:00 12.5 5 Sudoeste 24 Oeste 0 -- -- 82
2019-04-27 12:00:00 13.6 6 Oeste 17 Oeste 0 -- -- 75
2019-04-27 11:00:00 11.9 0 Calma 4 Este 0 -- -- 78
2019-04-27 10:00:00 9.4 2 Sur 4 Noroeste 0 -- -- 94
2019-04-27 09:00:00 7.3 3 Nordeste 6 Norte 0 -- -- 99
2019-04-27 08:00:00 5.9 0 Calma 4 Sudeste 0 -- -- 100
2019-04-27 07:00:00 5.2 0 Calma 3 Sur 0 -- -- 100
2019-04-27 06:00:00 4.5 0 Calma 3 Noroeste 0 -- -- 100
2019-04-27 05:00:00 4 2 Este 6 Sudeste 0 -- -- 100
2019-04-27 04:00:00 3.4 0 Calma 5 Este 0 -- -- 99
2019-04-27 03:00:00 4.1 0 Calma 3 Este 0 -- -- 97
2019-04-27 02:00:00 5.2 0 Calma 3 Sur 0 -- -- 94
2019-04-27 01:00:00 6.7 0 Calma 4 Oeste 0 -- -- 92
2019-04-27 00:00:00 8.5 0 Calma 4 Sur 0 -- -- 90
2019-04-26 23:00:00 8.6 0 Calma 8 Nordeste 0 -- -- 89
2019-04-26 22:00:00 8.9 4 Sudeste 7 Sur 0 -- -- 85
2019-04-26 21:00:00 9.3 0 Calma 6 Oeste 0 -- -- 83
2019-04-26 20:00:00 9.6 5 Noroeste 9 Noroeste 0 -- -- 81
2019-04-26 19:00:00 9.8 0 Calma 10 Sudeste 0 -- -- 79
2019-04-26 18:00:00 9.8 4 Sur 14 Este 0 -- -- 76
2019-04-26 17:00:00 10.8 4 Sur 16 Este 0 -- -- 73
2019-04-26 16:00:00 11.8 5 Este 18 Este 0 -- -- 72
2019-04-26 15:00:00 12 8 Sudeste 22 Sur 0 -- -- 69
2019-04-26 14:00:00 13.3 12 Oeste 20 Oeste 0 -- -- 64
2019-04-26 13:00:00 11.9 6 Oeste 32 Sudoeste 0 -- -- 67
2019-04-26 12:00:00 12.2 6 Sudoeste 21 Noroeste 0 -- -- 65
2019-04-26 11:00:00 11.3 7 Oeste 21 Oeste 0 -- -- 70
2019-04-26 10:00:00 10.5 6 Noroeste 13 Oeste 0 -- -- 74
2019-04-26 09:00:00 7.7 0 Calma 4 Nordeste 0 -- -- 92
2019-04-26 08:00:00 6.1 0 Calma 4 Sur 0 -- -- 95
2019-04-26 07:00:00 6.1 0 Calma 6 Sur 0 -- -- 94
2019-04-26 06:00:00 5.7 0 Calma 4 Noroeste 0 -- -- 95
2019-04-26 05:00:00 5 3 Sudeste 7 Sur 0 -- -- 93
2019-04-26 04:00:00 5.6 2 Sudeste 5 Este 0 -- -- 91
2019-04-26 03:00:00 6.6 2 Este 8 Sur 0 -- -- 92
2019-04-26 02:00:00 6.9 3 Sudoeste 6 Sudoeste 0 -- -- 88
2019-04-26 01:00:00 6.9 2 Este 4 Nordeste 0 -- -- 85
2019-04-26 00:00:00 7.6 2 Sudeste 4 Este 0 -- -- 80
2019-04-25 23:00:00 8.4 2 Sur 6 Sudoeste 0 -- -- 78
2019-04-25 22:00:00 8.8 2 Oeste 15 Noroeste 0 -- -- 66
2019-04-25 21:00:00 10.8 5 Oeste 22 Noroeste 0 -- -- 52
2019-04-25 20:00:00 12.3 10 Noroeste 26 Noroeste 0 -- -- 54
2019-04-25 19:00:00 14.1 10 Noroeste 33 Noroeste 0 -- -- 41
2019-04-25 18:00:00 15 13 Nordeste 35 Nordeste 0 -- -- 44
2019-04-25 17:00:00 15.8 10 Este 34 Nordeste 0 -- -- 39
2019-04-25 16:00:00 14.6 10 Noroeste 22 Nordeste 0 -- -- 43
2019-04-25 15:00:00 14.2 6 Nordeste 24 Noroeste 0 -- -- 49
2019-04-25 14:00:00 14.9 9 Oeste 29 Noroeste 0 -- -- 43
2019-04-25 13:00:00 14.4 9 Sudoeste 36 Noroeste 0 -- -- 42
2019-04-25 12:00:00 13 14 Noroeste 30 Noroeste 0 -- -- 45
2019-04-25 11:00:00 11.6 7 Este 23 Este 0 -- -- 54
2019-04-25 10:00:00 11.1 10 Este 28 Este 0 -- -- 57
2019-04-25 09:00:00 8.1 8 Este 24 Sur 0 -- -- 64
2019-04-25 08:00:00 6.1 10 Este 20 Este 0 -- -- 72
2019-04-25 07:00:00 6.2 10 Nordeste 22 Este 0 -- -- 74
2019-04-25 06:00:00 5.1 4 Sur 16 Este 0 -- -- 82
2019-04-25 05:00:00 6.4 4 Oeste 24 Este 0 -- -- 78
2019-04-25 04:00:00 4 4 Este 13 Sur 0 -- -- 93
2019-04-25 03:00:00 4.8 4 Sudeste 8 Sur 0 -- -- 89
2019-04-25 02:00:00 6.7 3 Sudeste 16 Este 0 -- -- 90
2019-04-25 01:00:00 7.3 3 Sudeste 10 Sur 0 -- -- 93
2019-04-25 00:00:00 8.4 3 Este 9 Oeste 0 -- -- 86
2019-04-24 23:00:00 9.7 3 Oeste 15 Norte 0 -- -- 80
2019-04-24 22:00:00 10.8 4 Sudoeste 23 Este 0 -- -- 73
2019-04-24 21:00:00 11.6 3 Sudeste 21 Noroeste 0 -- -- 65
2019-04-24 20:00:00 14.4 7 Oeste 42 Noroeste 0 -- -- 49
2019-04-24 19:00:00 16.4 19 Noroeste 41 Noroeste 0 -- -- 40
2019-04-24 18:00:00 14.9 13 Noroeste 42 Noroeste 0 -- -- 51
2019-04-24 17:00:00 17 13 Noroeste 41 Noroeste 0 -- -- 45
2019-04-24 16:00:00 17.4 12 Este 37 Sudeste 0 -- -- 47
2019-04-24 15:00:00 13.9 11 Nordeste 45 Este 0 -- -- 62
2019-04-24 14:00:00 11.7 23 Este 45 Este 0 -- -- 68
2019-04-24 13:00:00 9.4 15 Este 44 Este 0 -- -- 74
2019-04-24 12:00:00 8.8 23 Este 45 Este 0.2 -- -- 74
2019-04-24 11:00:00 6.7 7 Nordeste 31 Este 0.8 -- -- 85
2019-04-24 10:00:00 6.8 10 Este 53 Nordeste 0 -- -- 78
2019-04-24 09:00:00 7.9 14 Este 37 Este 0 -- -- 69
2019-04-24 08:00:00 7.8 12 Sudeste 39 Este 0 -- -- 58
2019-04-24 07:00:00 5.5 15 Este 45 Este 0.2 -- -- 80
2019-04-24 06:00:00 1.6 4 Oeste 6 Noroeste 0 -- -- 100
2019-04-24 05:00:00 2.1 2 Este 5 Sur 0 -- -- 100
2019-04-24 04:00:00 2.7 2 Sur 5 Sudoeste 0 -- -- 99
2019-04-24 03:00:00 3.6 2 Sur 5 Sur 0 -- -- 99
2019-04-24 02:00:00 4.2 2 Sudoeste 6 Sudoeste 0 -- -- 99
2019-04-24 01:00:00 4.6 0 Calma 4 Sur 0 -- -- 95
2019-04-24 00:00:00 6.5 2 Sur 6 Oeste 0.6 -- -- 94
2019-04-23 23:00:00 7.2 2 Sur 5 Este 0 -- -- 90
2019-04-23 22:00:00 7.6 0 Calma 17 Noroeste 0 -- -- 83
2019-04-23 21:00:00 8.1 6 Noroeste 18 Oeste 0 -- -- 83
2019-04-23 20:00:00 9.3 9 Oeste 27 Oeste 0.4 -- -- 82
2019-04-23 19:00:00 12.7 11 Noroeste 21 Oeste 0 -- -- 76
2019-04-23 18:00:00 14.7 5 Noroeste 17 Norte 0 -- -- 53
2019-04-23 17:00:00 14.4 9 Noroeste 26 Este 0 -- -- 61
2019-04-23 16:00:00 13.6 10 Norte 28 Este 0 -- -- 57
2019-04-23 15:00:00 12.9 7 Noroeste 19 Noroeste 0 -- -- 79
2019-04-23 14:00:00 13.3 10 Noroeste 24 Oeste 0 -- -- 74
2019-04-23 13:00:00 14.7 7 Noroeste 20 Nordeste 0 -- -- 63
2019-04-23 12:00:00 13 3 Nordeste 19 Nordeste 0 -- -- 65
2019-04-23 11:00:00 13.4 4 Nordeste 12 Este 0 -- -- 60
2019-04-23 10:00:00 12.2 3 Nordeste 24 Este 0 -- -- 74
2019-04-23 09:00:00 12 10 Este 20 Este 0 -- -- 70
2019-04-23 08:00:00 11.6 8 Este 13 Este 0 -- -- 79
2019-04-23 07:00:00 13 8 Nordeste 19 Noroeste 0 -- -- 67
2019-04-23 06:00:00 12.3 3 Nordeste 17 Sur 0 -- -- 68
2019-04-23 05:00:00 13.7 11 Este 23 Este 0 -- -- 57
2019-04-23 04:00:00 12.5 2 Sur 23 Este 0 -- -- 76
2019-04-23 03:00:00 13.1 7 Este 26 Este 0 -- -- 71
2019-04-23 02:00:00 13.7 13 Este 20 Sudeste 0 -- -- 65
2019-04-23 01:00:00 12.9 4 Sudeste 25 Nordeste 0 -- -- 67
2019-04-23 00:00:00 14.6 13 Este 26 Este 0 -- -- 58